sensor_id;sensor_type;location;lat;lon;timestamp;pressure;altitude;pressure_sealevel;temperature;humidity
59009;BME280;44794;42.652;23.318;2023-05-17T00:00:47;93802.97;;;13.93;100.00
59009;BME280;44794;42.652;23.318;2023-05-17T00:03:12;93816.81;;;13.86;100.00
59009;BME280;44794;42.652;23.318;2023-05-17T00:05:38;93819.19;;;13.79;100.00
59009;BME280;44794;42.652;23.318;2023-05-17T00:08:03;93819.78;;;13.73;100.00
59009;BME280;44794;42.652;23.318;2023-05-17T00:10:29;93814.34;;;13.67;100.00
59009;BME280;44794;42.652;23.318;2023-05-17T00:12:54;93807.13;;;13.61;100.00
59009;BME280;44794;42.652;23.318;2023-05-17T00:15:20;93803.31;;;13.55;100.00
59009;BME280;44794;42.652;23.318;2023-05-17T00:17:45;93804.88;;;13.48;100.00
59009;BME280;44794;42.652;23.318;2023-05-17T00:20:11;93789.97;;;13.41;100.00
59009;BME280;44794;42.652;23.318;2023-05-17T00:22:36;93798.69;;;13.32;100.00
59009;BME280;44794;42.652;23.318;2023-05-17T00:25:02;93794.06;;;13.26;100.00
59009;BME280;44794;42.652;23.318;2023-05-17T00:27:28;93782.53;;;13.29;100.00
59009;BME280;44794;42.652;23.318;2023-05-17T00:29:53;93789.16;;;13.23;100.00
59009;BME280;44794;42.652;23.318;2023-05-17T00:32:19;93787.13;;;13.17;100.00
59009;BME280;44794;42.652;23.318;2023-05-17T00:34:44;93786.75;;;13.12;100.00
59009;BME280;44794;42.652;23.318;2023-05-17T00:37:10;93783.78;;;13.07;100.00
59009;BME280;44794;42.652;23.318;2023-05-17T00:39:35;93770.91;;;13.06;100.00
59009;BME280;44794;42.652;23.318;2023-05-17T00:42:00;93792.47;;;12.98;100.00
59009;BME280;44794;42.652;23.318;2023-05-17T00:44:26;93784.44;;;12.82;100.00
59009;BME280;44794;42.652;23.318;2023-05-17T00:46:51;93780.78;;;12.75;100.00
59009;BME280;44794;42.652;23.318;2023-05-17T00:49:17;93787.16;;;12.64;100.00
59009;BME280;44794;42.652;23.318;2023-05-17T00:51:43;93783.50;;;12.57;100.00
59009;BME280;44794;42.652;23.318;2023-05-17T00:54:10;93789.13;;;12.52;100.00
59009;BME280;44794;42.652;23.318;2023-05-17T00:56:36;93787.94;;;12.47;100.00
59009;BME280;44794;42.652;23.318;2023-05-17T00:59:04;93788.47;;;12.50;100.00
59009;BME280;44794;42.652;23.318;2023-05-17T01:01:31;93776.41;;;12.49;100.00
59009;BME280;44794;42.652;23.318;2023-05-17T01:03:58;93779.13;;;12.48;100.00
59009;BME280;44794;42.652;23.318;2023-05-17T01:06:23;93779.72;;;12.42;100.00
59009;BME280;44794;42.652;23.318;2023-05-17T01:08:48;93778.59;;;12.44;100.00
59009;BME280;44794;42.652;23.318;2023-05-17T01:17:10;93762.44;;;12.41;100.00
59009;BME280;44794;42.652;23.318;2023-05-17T01:27:25;93769.03;;;12.08;100.00
59009;BME280;44794;42.652;23.318;2023-05-17T01:29:55;93764.63;;;12.09;100.00
59009;BME280;44794;42.652;23.318;2023-05-17T01:32:21;93773.03;;;12.03;100.00
59009;BME280;44794;42.652;23.318;2023-05-17T01:34:47;93772.75;;;11.97;100.00
59009;BME280;44794;42.652;23.318;2023-05-17T01:37:13;93767.31;;;11.90;100.00
59009;BME280;44794;42.652;23.318;2023-05-17T01:39:39;93762.66;;;11.84;100.00
59009;BME280;44794;42.652;23.318;2023-05-17T01:42:27;93763.50;;;11.75;100.00
59009;BME280;44794;42.652;23.318;2023-05-17T01:47:47;93764.88;;;11.70;100.00
59009;BME280;44794;42.652;23.318;2023-05-17T01:50:18;93761.47;;;11.69;100.00
59009;BME280;44794;42.652;23.318;2023-05-17T01:52:52;93765.44;;;11.64;100.00
59009;BME280;44794;42.652;23.318;2023-05-17T01:57:51;93756.00;;;11.63;100.00
59009;BME280;44794;42.652;23.318;2023-05-17T02:00:18;93746.81;;;11.68;100.00
59009;BME280;44794;42.652;23.318;2023-05-17T02:02:44;93745.97;;;11.68;100.00
59009;BME280;44794;42.652;23.318;2023-05-17T02:05:09;93749.41;;;11.68;100.00
59009;BME280;44794;42.652;23.318;2023-05-17T02:07:35;93753.13;;;11.66;100.00
59009;BME280;44794;42.652;23.318;2023-05-17T02:10:01;93755.03;;;11.64;100.00
59009;BME280;44794;42.652;23.318;2023-05-17T02:12:26;93759.66;;;11.70;100.00
59009;BME280;44794;42.652;23.318;2023-05-17T02:14:52;93750.09;;;11.70;100.00
59009;BME280;44794;42.652;23.318;2023-05-17T02:17:17;93748.72;;;11.66;100.00
59009;BME280;44794;42.652;23.318;2023-05-17T02:19:43;93750.94;;;11.61;100.00
59009;BME280;44794;42.652;23.318;2023-05-17T02:22:08;93749.16;;;11.52;100.00
59009;BME280;44794;42.652;23.318;2023-05-17T02:24:33;93752.84;;;11.50;100.00
59009;BME280;44794;42.652;23.318;2023-05-17T02:26:59;93744.50;;;11.46;100.00
59009;BME280;44794;42.652;23.318;2023-05-17T02:29:25;93743.78;;;11.44;100.00
59009;BME280;44794;42.652;23.318;2023-05-17T02:31:50;93745.59;;;11.44;100.00
59009;BME280;44794;42.652;23.318;2023-05-17T02:34:16;93745.19;;;11.39;100.00
59009;BME280;44794;42.652;23.318;2023-05-17T02:36:41;93742.84;;;11.36;100.00
59009;BME280;44794;42.652;23.318;2023-05-17T02:39:08;93740.66;;;11.31;100.00
59009;BME280;44794;42.652;23.318;2023-05-17T02:41:34;93736.41;;;11.30;100.00
59009;BME280;44794;42.652;23.318;2023-05-17T02:43:59;93744.09;;;11.32;100.00
59009;BME280;44794;42.652;23.318;2023-05-17T02:46:25;93742.72;;;11.28;100.00
59009;BME280;44794;42.652;23.318;2023-05-17T02:48:50;93740.13;;;11.28;100.00
59009;BME280;44794;42.652;23.318;2023-05-17T02:51:16;93734.22;;;11.26;100.00
59009;BME280;44794;42.652;23.318;2023-05-17T02:53:42;93745.47;;;11.26;100.00
59009;BME280;44794;42.652;23.318;2023-05-17T02:56:07;93741.50;;;11.22;100.00
59009;BME280;44794;42.652;23.318;2023-05-17T02:58:32;93736.84;;;11.17;100.00
59009;BME280;44794;42.652;23.318;2023-05-17T03:00:58;93744.09;;;11.13;100.00
59009;BME280;44794;42.652;23.318;2023-05-17T03:03:24;93751.34;;;11.10;100.00
59009;BME280;44794;42.652;23.318;2023-05-17T03:05:49;93761.72;;;11.00;100.00
59009;BME280;44794;42.652;23.318;2023-05-17T03:08:15;93759.38;;;10.88;100.00
59009;BME280;44794;42.652;23.318;2023-05-17T03:10:40;93759.69;;;10.85;100.00
59009;BME280;44794;42.652;23.318;2023-05-17T03:13:06;93764.88;;;10.85;100.00
59009;BME280;44794;42.652;23.318;2023-05-17T03:15:31;93762.13;;;10.86;100.00
59009;BME280;44794;42.652;23.318;2023-05-17T03:17:57;93762.28;;;10.85;100.00
59009;BME280;44794;42.652;23.318;2023-05-17T03:20:22;93771.72;;;10.86;100.00
59009;BME280;44794;42.652;23.318;2023-05-17T03:22:48;93776.34;;;10.92;100.00
59009;BME280;44794;42.652;23.318;2023-05-17T03:25:13;93773.91;;;11.00;100.00
59009;BME280;44794;42.652;23.318;2023-05-17T03:27:39;93773.38;;;11.06;100.00
59009;BME280;44794;42.652;23.318;2023-05-17T03:30:05;93770.22;;;11.12;100.00
59009;BME280;44794;42.652;23.318;2023-05-17T03:32:31;93762.72;;;11.18;100.00
59009;BME280;44794;42.652;23.318;2023-05-17T03:34:56;93748.47;;;11.31;100.00
59009;BME280;44794;42.652;23.318;2023-05-17T03:37:22;93755.16;;;11.34;100.00
59009;BME280;44794;42.652;23.318;2023-05-17T03:39:47;93760.34;;;11.43;100.00
59009;BME280;44794;42.652;23.318;2023-05-17T03:42:15;93761.34;;;11.52;100.00
59009;BME280;44794;42.652;23.318;2023-05-17T03:44:40;93766.94;;;11.57;100.00
59009;BME280;44794;42.652;23.318;2023-05-17T03:47:06;93767.63;;;11.68;100.00
59009;BME280;44794;42.652;23.318;2023-05-17T03:49:31;93771.56;;;11.72;100.00
59009;BME280;44794;42.652;23.318;2023-05-17T03:51:57;93794.16;;;11.81;100.00
59009;BME280;44794;42.652;23.318;2023-05-17T03:54:22;93788.13;;;11.90;100.00
59009;BME280;44794;42.652;23.318;2023-05-17T03:56:48;93794.81;;;11.93;100.00
59009;BME280;44794;42.652;23.318;2023-05-17T03:59:14;93804.13;;;11.95;100.00
59009;BME280;44794;42.652;23.318;2023-05-17T04:01:41;93812.06;;;12.03;100.00
59009;BME280;44794;42.652;23.318;2023-05-17T04:04:07;93828.59;;;12.11;100.00
59009;BME280;44794;42.652;23.318;2023-05-17T04:06:33;93827.34;;;12.25;100.00
59009;BME280;44794;42.652;23.318;2023-05-17T04:08:58;93843.06;;;12.33;100.00
59009;BME280;44794;42.652;23.318;2023-05-17T04:11:27;93849.75;;;12.45;100.00
59009;BME280;44794;42.652;23.318;2023-05-17T04:13:53;93866.56;;;12.60;100.00
59009;BME280;44794;42.652;23.318;2023-05-17T04:16:19;93868.56;;;12.75;100.00
59009;BME280;44794;42.652;23.318;2023-05-17T04:18:45;93868.50;;;12.84;100.00
59009;BME280;44794;42.652;23.318;2023-05-17T04:21:11;93875.69;;;13.09;100.00
59009;BME280;44794;42.652;23.318;2023-05-17T04:23:36;93883.94;;;13.32;100.00
59009;BME280;44794;42.652;23.318;2023-05-17T04:26:02;93886.09;;;13.36;100.00
59009;BME280;44794;42.652;23.318;2023-05-17T04:28:29;93897.09;;;13.57;100.00
59009;BME280;44794;42.652;23.318;2023-05-17T04:30:55;93902.69;;;13.62;100.00
59009;BME280;44794;42.652;23.318;2023-05-17T04:33:21;93897.22;;;13.73;100.00
59009;BME280;44794;42.652;23.318;2023-05-17T04:35:47;93898.00;;;13.83;100.00
59009;BME280;44794;42.652;23.318;2023-05-17T04:38:13;93912.97;;;13.98;100.00
59009;BME280;44794;42.652;23.318;2023-05-17T04:40:38;93908.78;;;14.05;100.00
59009;BME280;44794;42.652;23.318;2023-05-17T04:43:03;93924.63;;;14.21;100.00
59009;BME280;44794;42.652;23.318;2023-05-17T04:45:29;93922.13;;;14.54;100.00
59009;BME280;44794;42.652;23.318;2023-05-17T04:47:55;93925.41;;;14.82;100.00
59009;BME280;44794;42.652;23.318;2023-05-17T04:50:20;93935.84;;;15.07;100.00
59009;BME280;44794;42.652;23.318;2023-05-17T04:52:46;93952.22;;;15.34;100.00
59009;BME280;44794;42.652;23.318;2023-05-17T04:55:15;93950.31;;;15.52;99.62
59009;BME280;44794;42.652;23.318;2023-05-17T04:57:40;93954.03;;;15.42;97.78
59009;BME280;44794;42.652;23.318;2023-05-17T05:00:06;93964.97;;;15.71;98.07
59009;BME280;44794;42.652;23.318;2023-05-17T05:02:34;93979.41;;;15.90;96.12
59009;BME280;44794;42.652;23.318;2023-05-17T05:04:59;93981.75;;;16.01;92.94
59009;BME280;44794;42.652;23.318;2023-05-17T05:07:25;93982.81;;;16.40;91.91
59009;BME280;44794;42.652;23.318;2023-05-17T05:09:50;94007.09;;;17.06;87.52
59009;BME280;44794;42.652;23.318;2023-05-17T05:12:15;94007.75;;;18.24;84.15
59009;BME280;44794;42.652;23.318;2023-05-17T05:14:41;94025.31;;;18.54;78.27
59009;BME280;44794;42.652;23.318;2023-05-17T05:17:07;94019.72;;;18.79;76.26
59009;BME280;44794;42.652;23.318;2023-05-17T05:19:33;94034.81;;;19.95;71.39
59009;BME280;44794;42.652;23.318;2023-05-17T05:21:59;94040.16;;;20.80;60.94
59009;BME280;44794;42.652;23.318;2023-05-17T05:24:25;94040.63;;;21.53;58.06
59009;BME280;44794;42.652;23.318;2023-05-17T05:26:50;94042.44;;;22.07;55.63
59009;BME280;44794;42.652;23.318;2023-05-17T05:29:17;94053.97;;;23.65;51.35
59009;BME280;44794;42.652;23.318;2023-05-17T05:31:42;94058.03;;;23.48;50.34
59009;BME280;44794;42.652;23.318;2023-05-17T05:34:07;94056.44;;;23.86;48.87
59009;BME280;44794;42.652;23.318;2023-05-17T05:36:33;94062.56;;;24.00;47.42
59009;BME280;44794;42.652;23.318;2023-05-17T05:38:58;94060.09;;;23.72;48.02
59009;BME280;44794;42.652;23.318;2023-05-17T05:41:24;94051.47;;;23.12;49.63
59009;BME280;44794;42.652;23.318;2023-05-17T05:43:49;94052.31;;;23.32;49.33
59009;BME280;44794;42.652;23.318;2023-05-17T05:46:15;94067.19;;;24.43;46.28
59009;BME280;44794;42.652;23.318;2023-05-17T05:48:40;94063.19;;;24.71;45.52
59009;BME280;44794;42.652;23.318;2023-05-17T05:51:06;94066.03;;;23.74;48.08
59009;BME280;44794;42.652;23.318;2023-05-17T05:53:32;94060.88;;;24.05;46.65
59009;BME280;44794;42.652;23.318;2023-05-17T05:55:57;94048.78;;;24.41;46.01
59009;BME280;44794;42.652;23.318;2023-05-17T05:58:23;94062.28;;;24.33;45.69
59009;BME280;44794;42.652;23.318;2023-05-17T06:00:49;94061.09;;;25.30;44.96
59009;BME280;44794;42.652;23.318;2023-05-17T06:03:14;94065.44;;;23.79;46.44
59009;BME280;44794;42.652;23.318;2023-05-17T06:05:40;94067.06;;;23.93;46.91
59009;BME280;44794;42.652;23.318;2023-05-17T06:08:06;94065.78;;;23.63;47.87
59009;BME280;44794;42.652;23.318;2023-05-17T06:10:32;94064.13;;;24.20;46.31
59009;BME280;44794;42.652;23.318;2023-05-17T06:12:57;94064.22;;;22.96;48.83
59009;BME280;44794;42.652;23.318;2023-05-17T06:15:23;94058.03;;;23.29;49.12
59009;BME280;44794;42.652;23.318;2023-05-17T06:17:48;94070.06;;;23.70;47.24
59009;BME280;44794;42.652;23.318;2023-05-17T06:20:14;94064.22;;;22.96;49.52
59009;BME280;44794;42.652;23.318;2023-05-17T06:22:41;94059.53;;;22.38;50.34
59009;BME280;44794;42.652;23.318;2023-05-17T06:25:07;94053.69;;;22.56;51.74
59009;BME280;44794;42.652;23.318;2023-05-17T06:27:35;94063.00;;;22.39;51.37
59009;BME280;44794;42.652;23.318;2023-05-17T06:30:00;94058.41;;;22.60;52.22
59009;BME280;44794;42.652;23.318;2023-05-17T06:32:26;94070.78;;;22.47;51.34
59009;BME280;44794;42.652;23.318;2023-05-17T06:34:51;94061.56;;;22.36;51.74
59009;BME280;44794;42.652;23.318;2023-05-17T06:37:17;94068.53;;;22.97;50.29
59009;BME280;44794;42.652;23.318;2023-05-17T06:39:42;94061.94;;;22.80;50.82
59009;BME280;44794;42.652;23.318;2023-05-17T06:42:07;94060.09;;;22.34;51.78
59009;BME280;44794;42.652;23.318;2023-05-17T06:44:33;94061.59;;;22.96;50.23
59009;BME280;44794;42.652;23.318;2023-05-17T06:46:58;94067.25;;;23.85;48.72
59009;BME280;44794;42.652;23.318;2023-05-17T06:49:25;94057.75;;;24.47;48.25
59009;BME280;44794;42.652;23.318;2023-05-17T06:51:50;94061.94;;;23.91;47.81
59009;BME280;44794;42.652;23.318;2023-05-17T06:54:16;94065.59;;;23.90;48.30
59009;BME280;44794;42.652;23.318;2023-05-17T06:56:43;94057.63;;;23.51;49.63
59009;BME280;44794;42.652;23.318;2023-05-17T06:59:09;94053.53;;;23.30;49.93
59009;BME280;44794;42.652;23.318;2023-05-17T07:01:35;94064.94;;;23.37;50.89
59009;BME280;44794;42.652;23.318;2023-05-17T07:04:00;94059.25;;;24.17;49.15
59009;BME280;44794;42.652;23.318;2023-05-17T07:06:26;94068.00;;;24.37;48.40
59009;BME280;44794;42.652;23.318;2023-05-17T07:08:52;94071.94;;;23.89;49.70
59009;BME280;44794;42.652;23.318;2023-05-17T07:11:18;94084.16;;;23.90;48.09
59009;BME280;44794;42.652;23.318;2023-05-17T07:13:43;94085.16;;;23.63;49.86
59009;BME280;44794;42.652;23.318;2023-05-17T07:16:09;94087.44;;;24.05;48.73
59009;BME280;44794;42.652;23.318;2023-05-17T07:18:34;94076.38;;;23.69;49.45
59009;BME280;44794;42.652;23.318;2023-05-17T07:21:00;94077.66;;;23.73;49.44
59009;BME280;44794;42.652;23.318;2023-05-17T07:23:25;94076.19;;;22.72;52.35
59009;BME280;44794;42.652;23.318;2023-05-17T07:25:51;94076.16;;;23.26;51.61
59009;BME280;44794;42.652;23.318;2023-05-17T07:28:16;94082.66;;;22.57;52.53
59009;BME280;44794;42.652;23.318;2023-05-17T07:30:42;94071.72;;;21.78;56.79
59009;BME280;44794;42.652;23.318;2023-05-17T07:33:07;94069.28;;;21.08;59.38
59009;BME280;44794;42.652;23.318;2023-05-17T07:35:32;94069.66;;;21.05;61.02
59009;BME280;44794;42.652;23.318;2023-05-17T07:37:58;94076.25;;;21.57;59.54
59009;BME280;44794;42.652;23.318;2023-05-17T07:40:23;94069.28;;;22.04;56.90
59009;BME280;44794;42.652;23.318;2023-05-17T07:42:49;94087.81;;;22.10;56.45
59009;BME280;44794;42.652;23.318;2023-05-17T07:45:14;94085.34;;;22.30;55.03
59009;BME280;44794;42.652;23.318;2023-05-17T07:47:40;94081.16;;;22.14;54.99
59009;BME280;44794;42.652;23.318;2023-05-17T07:50:06;94073.03;;;21.89;57.33
59009;BME280;44794;42.652;23.318;2023-05-17T07:52:31;94073.97;;;21.54;58.41
59009;BME280;44794;42.652;23.318;2023-05-17T07:54:57;94067.47;;;21.77;59.30
59009;BME280;44794;42.652;23.318;2023-05-17T07:57:22;94073.81;;;21.83;57.50
59009;BME280;44794;42.652;23.318;2023-05-17T07:59:47;94073.97;;;21.54;58.83
59009;BME280;44794;42.652;23.318;2023-05-17T08:02:13;94072.06;;;21.48;59.19
59009;BME280;44794;42.652;23.318;2023-05-17T08:04:38;94070.25;;;21.69;58.51
59009;BME280;44794;42.652;23.318;2023-05-17T08:07:06;94070.63;;;20.83;60.52
59009;BME280;44794;42.652;23.318;2023-05-17T08:09:31;94078.13;;;21.21;61.82
59009;BME280;44794;42.652;23.318;2023-05-17T08:11:57;94077.13;;;20.51;61.06
59009;BME280;44794;42.652;23.318;2023-05-17T08:14:22;94069.75;;;20.61;62.94
59009;BME280;44794;42.652;23.318;2023-05-17T08:16:49;94052.09;;;20.76;63.38
59009;BME280;44794;42.652;23.318;2023-05-17T08:19:17;94060.41;;;21.15;61.19
59009;BME280;44794;42.652;23.318;2023-05-17T08:21:42;94064.59;;;21.30;61.87
59009;BME280;44794;42.652;23.318;2023-05-17T08:24:10;94066.69;;;21.14;59.81
59009;BME280;44794;42.652;23.318;2023-05-17T08:26:36;94067.97;;;21.18;60.40
59009;BME280;44794;42.652;23.318;2023-05-17T08:29:03;94064.63;;;20.74;60.37
59009;BME280;44794;42.652;23.318;2023-05-17T08:31:29;94056.94;;;21.56;59.07
59009;BME280;44794;42.652;23.318;2023-05-17T08:33:56;94057.75;;;21.36;57.78
59009;BME280;44794;42.652;23.318;2023-05-17T08:36:21;94055.44;;;20.85;59.68
59009;BME280;44794;42.652;23.318;2023-05-17T08:38:47;94055.19;;;20.80;60.88
59009;BME280;44794;42.652;23.318;2023-05-17T08:41:12;94056.25;;;21.06;60.28
59009;BME280;44794;42.652;23.318;2023-05-17T08:43:38;94065.31;;;21.60;60.50
59009;BME280;44794;42.652;23.318;2023-05-17T08:46:05;94058.50;;;22.05;57.20
59009;BME280;44794;42.652;23.318;2023-05-17T08:48:33;94069.38;;;22.23;57.81
59009;BME280;44794;42.652;23.318;2023-05-17T08:51:00;94062.22;;;22.45;56.76
59009;BME280;44794;42.652;23.318;2023-05-17T08:53:28;94059.78;;;22.43;55.92
59009;BME280;44794;42.652;23.318;2023-05-17T08:55:57;94061.06;;;22.60;55.78
59009;BME280;44794;42.652;23.318;2023-05-17T08:58:30;94058.94;;;22.36;55.18
59009;BME280;44794;42.652;23.318;2023-05-17T09:00:58;94062.41;;;22.43;56.03
59009;BME280;44794;42.652;23.318;2023-05-17T09:03:24;94057.06;;;21.76;56.69
59009;BME280;44794;42.652;23.318;2023-05-17T09:05:51;94063.47;;;21.60;57.08
59009;BME280;44794;42.652;23.318;2023-05-17T09:08:20;94058.28;;;21.52;57.32
59009;BME280;44794;42.652;23.318;2023-05-17T09:10:46;94047.50;;;22.29;56.87
59009;BME280;44794;42.652;23.318;2023-05-17T09:13:12;94052.31;;;22.26;55.37
59009;BME280;44794;42.652;23.318;2023-05-17T09:15:38;94044.75;;;22.50;54.71
59009;BME280;44794;42.652;23.318;2023-05-17T09:18:09;94043.69;;;22.11;55.09
59009;BME280;44794;42.652;23.318;2023-05-17T09:20:35;94041.09;;;22.58;55.20
59009;BME280;44794;42.652;23.318;2023-05-17T09:23:02;94047.84;;;22.26;54.54
59009;BME280;44794;42.652;23.318;2023-05-17T09:25:29;94049.34;;;22.35;54.46
59009;BME280;44794;42.652;23.318;2023-05-17T09:28:00;94051.84;;;22.43;56.67
59009;BME280;44794;42.652;23.318;2023-05-17T09:30:27;94051.41;;;22.40;55.07
59009;BME280;44794;42.652;23.318;2023-05-17T09:32:53;94050.09;;;21.95;56.54
59009;BME280;44794;42.652;23.318;2023-05-17T09:35:29;94040.69;;;21.87;57.41
59009;BME280;44794;42.652;23.318;2023-05-17T09:38:24;94027.31;;;21.94;57.63
59009;BME280;44794;42.652;23.318;2023-05-17T09:40:50;94041.16;;;22.30;56.98
59009;BME280;44794;42.652;23.318;2023-05-17T09:43:22;94048.91;;;21.98;57.40
59009;BME280;44794;42.652;23.318;2023-05-17T09:45:55;94054.84;;;21.73;58.20
59009;BME280;44794;42.652;23.318;2023-05-17T09:48:21;94051.84;;;21.13;59.42
59009;BME280;44794;42.652;23.318;2023-05-17T09:50:48;94044.78;;;20.78;62.41
59009;BME280;44794;42.652;23.318;2023-05-17T09:53:31;94056.03;;;20.51;62.96
59009;BME280;44794;42.652;23.318;2023-05-17T09:55:59;94051.03;;;21.13;61.91
59009;BME280;44794;42.652;23.318;2023-05-17T09:58:26;94041.22;;;20.71;62.17
59009;BME280;44794;42.652;23.318;2023-05-17T10:00:57;94051.84;;;20.92;63.07
59009;BME280;44794;42.652;23.318;2023-05-17T10:03:23;94040.28;;;20.93;61.28
59009;BME280;44794;42.652;23.318;2023-05-17T10:05:52;94041.69;;;20.39;63.07
59009;BME280;44794;42.652;23.318;2023-05-17T10:08:21;94032.94;;;20.74;62.98
59009;BME280;44794;42.652;23.318;2023-05-17T10:10:48;94031.03;;;20.47;61.60
59009;BME280;44794;42.652;23.318;2023-05-17T10:13:17;94031.47;;;20.51;62.45
59009;BME280;44794;42.652;23.318;2023-05-17T10:15:47;94022.22;;;20.40;62.99
59009;BME280;44794;42.652;23.318;2023-05-17T10:18:13;94017.31;;;20.73;61.69
59009;BME280;44794;42.652;23.318;2023-05-17T10:20:40;94005.59;;;20.75;62.25
59009;BME280;44794;42.652;23.318;2023-05-17T10:23:07;93999.69;;;20.59;64.17
59009;BME280;44794;42.652;23.318;2023-05-17T10:25:35;93995.63;;;20.77;63.21
59009;BME280;44794;42.652;23.318;2023-05-17T10:28:00;93993.97;;;20.20;63.82
59009;BME280;44794;42.652;23.318;2023-05-17T10:30:27;93976.16;;;20.08;65.59
59009;BME280;44794;42.652;23.318;2023-05-17T10:32:52;93972.31;;;20.10;65.23
59009;BME280;44794;42.652;23.318;2023-05-17T10:35:19;93961.88;;;19.88;66.42
59009;BME280;44794;42.652;23.318;2023-05-17T10:37:45;93946.16;;;19.80;66.15
59009;BME280;44794;42.652;23.318;2023-05-17T10:40:11;93940.56;;;19.40;68.54
59009;BME280;44794;42.652;23.318;2023-05-17T10:42:45;93935.03;;;19.49;69.42
59009;BME280;44794;42.652;23.318;2023-05-17T10:45:12;93932.47;;;19.70;67.68
59009;BME280;44794;42.652;23.318;2023-05-17T10:47:39;93926.03;;;19.44;65.48
59009;BME280;44794;42.652;23.318;2023-05-17T10:50:19;93913.97;;;19.49;69.20
59009;BME280;44794;42.652;23.318;2023-05-17T10:52:46;93890.56;;;19.75;66.85
59009;BME280;44794;42.652;23.318;2023-05-17T10:55:12;93884.78;;;19.51;68.49
59009;BME280;44794;42.652;23.318;2023-05-17T10:57:42;93881.97;;;19.52;68.47
59009;BME280;44794;42.652;23.318;2023-05-17T11:00:08;93891.31;;;19.55;68.33
59009;BME280;44794;42.652;23.318;2023-05-17T11:02:39;93887.75;;;19.91;68.08
59009;BME280;44794;42.652;23.318;2023-05-17T11:05:06;93878.09;;;19.83;65.56
59009;BME280;44794;42.652;23.318;2023-05-17T11:07:47;93887.72;;;20.26;64.71
59009;BME280;44794;42.652;23.318;2023-05-17T11:10:12;93890.81;;;20.50;65.22
59009;BME280;44794;42.652;23.318;2023-05-17T11:12:46;93896.84;;;20.86;63.81
59009;BME280;44794;42.652;23.318;2023-05-17T11:15:23;93898.81;;;21.05;62.35
59009;BME280;44794;42.652;23.318;2023-05-17T11:17:51;93904.94;;;21.06;62.40
59009;BME280;44794;42.652;23.318;2023-05-17T11:25:23;93921.78;;;20.63;61.73
59009;BME280;44794;42.652;23.318;2023-05-17T11:27:52;93935.94;;;20.20;64.43
59009;BME280;44794;42.652;23.318;2023-05-17T11:30:28;93937.97;;;20.39;65.09
59009;BME280;44794;42.652;23.318;2023-05-17T11:33:03;93948.06;;;20.15;66.62
59009;BME280;44794;42.652;23.318;2023-05-17T11:35:36;93958.69;;;20.21;67.73
59009;BME280;44794;42.652;23.318;2023-05-17T11:40:39;93977.78;;;19.80;67.26
59009;BME280;44794;42.652;23.318;2023-05-17T11:43:16;93969.63;;;19.75;72.29
59009;BME280;44794;42.652;23.318;2023-05-17T11:45:52;93974.91;;;19.75;73.37
59009;BME280;44794;42.652;23.318;2023-05-17T11:48:23;93979.53;;;19.87;72.51
59009;BME280;44794;42.652;23.318;2023-05-17T11:50:51;93980.97;;;19.90;71.62
59009;BME280;44794;42.652;23.318;2023-05-17T11:53:18;93976.53;;;19.47;72.08
59009;BME280;44794;42.652;23.318;2023-05-17T11:55:46;93975.53;;;19.48;73.09
59009;BME280;44794;42.652;23.318;2023-05-17T11:58:13;93990.13;;;19.22;73.42
59009;BME280;44794;42.652;23.318;2023-05-17T12:00:40;93983.16;;;19.43;73.90
59009;BME280;44794;42.652;23.318;2023-05-17T12:03:23;93989.06;;;19.45;67.74
59009;BME280;44794;42.652;23.318;2023-05-17T12:06:08;93989.97;;;19.38;67.65
59009;BME280;44794;42.652;23.318;2023-05-17T12:08:36;93983.66;;;19.24;67.38
59009;BME280;44794;42.652;23.318;2023-05-17T12:11:04;93986.59;;;19.29;67.91
59009;BME280;44794;42.652;23.318;2023-05-17T12:13:31;93992.78;;;19.36;66.90
59009;BME280;44794;42.652;23.318;2023-05-17T12:16:00;93990.50;;;19.19;67.35
59009;BME280;44794;42.652;23.318;2023-05-17T12:18:37;93992.78;;;19.36;66.33
59009;BME280;44794;42.652;23.318;2023-05-17T12:21:04;93981.94;;;19.31;67.27
59009;BME280;44794;42.652;23.318;2023-05-17T12:23:31;93976.53;;;19.61;66.26
59009;BME280;44794;42.652;23.318;2023-05-17T12:26:10;93976.34;;;20.06;63.79
59009;BME280;44794;42.652;23.318;2023-05-17T12:28:37;93974.53;;;20.42;62.48
59009;BME280;44794;42.652;23.318;2023-05-17T12:31:06;93974.75;;;20.40;61.72
59009;BME280;44794;42.652;23.318;2023-05-17T12:33:37;93972.94;;;20.62;61.07
59009;BME280;44794;42.652;23.318;2023-05-17T12:36:06;93965.25;;;20.67;61.33
59009;BME280;44794;42.652;23.318;2023-05-17T12:38:32;93966.19;;;20.38;61.86
59009;BME280;44794;42.652;23.318;2023-05-17T12:41:02;93970.56;;;20.32;62.03
59009;BME280;44794;42.652;23.318;2023-05-17T12:43:29;93962.38;;;20.06;62.99
59009;BME280;44794;42.652;23.318;2023-05-17T12:46:06;93973.63;;;19.85;62.56
59009;BME280;44794;42.652;23.318;2023-05-17T12:48:39;93967.41;;;19.93;64.05
59009;BME280;44794;42.652;23.318;2023-05-17T12:51:15;93959.50;;;20.22;64.37
59009;BME280;44794;42.652;23.318;2023-05-17T12:53:55;93958.47;;;20.37;63.88
59009;BME280;44794;42.652;23.318;2023-05-17T12:56:30;93959.44;;;20.01;65.10
59009;BME280;44794;42.652;23.318;2023-05-17T13:01:41;93957.25;;;19.90;67.20
59009;BME280;44794;42.652;23.318;2023-05-17T13:04:06;93962.97;;;20.08;66.21
59009;BME280;44794;42.652;23.318;2023-05-17T13:07:08;93956.63;;;19.73;67.50
59009;BME280;44794;42.652;23.318;2023-05-17T13:09:33;93959.00;;;19.54;69.02
59009;BME280;44794;42.652;23.318;2023-05-17T13:12:09;93957.63;;;19.44;69.39
59009;BME280;44794;42.652;23.318;2023-05-17T13:17:01;93955.72;;;19.38;70.39